createdAt,value
2019-02-22T00:00:38.450Z,69.14
2019-02-22T00:03:40.419Z,69.14
2019-02-22T00:06:42.423Z,69.22
2019-02-22T00:09:49.506Z,69.37
2019-02-22T00:12:48.293Z,69.34
2019-02-22T00:15:50.348Z,69.42
2019-02-22T00:18:52.547Z,69.52
2019-02-22T00:21:54.503Z,69.62
2019-02-22T00:24:56.476Z,69.84
2019-02-22T00:27:58.476Z,69.84
2019-02-22T00:31:00.376Z,69.89
2019-02-22T00:34:02.370Z,69.95
2019-02-22T00:37:04.292Z,69.96
2019-02-22T00:40:06.281Z,69.82
2019-02-22T00:43:08.220Z,69.96
2019-02-22T00:46:10.145Z,69.80
2019-02-22T00:49:12.117Z,69.83
2019-02-22T00:52:14.041Z,69.94
2019-02-22T00:55:15.983Z,69.86
2019-02-22T00:58:17.937Z,69.87
2019-02-22T01:01:19.878Z,69.74
2019-02-22T01:04:21.919Z,69.57
2019-02-22T01:07:24.519Z,69.66
2019-02-22T01:10:31.152Z,69.77
2019-02-22T01:13:30.343Z,69.70
2019-02-22T01:16:32.304Z,69.48
2019-02-22T01:19:34.362Z,69.27
2019-02-22T01:22:36.518Z,69.39
2019-02-22T01:25:38.425Z,69.53
2019-02-22T01:28:40.374Z,69.51
2019-02-22T01:31:42.223Z,69.64
2019-02-22T01:34:44.160Z,69.61
2019-02-22T01:37:46.074Z,69.60
2019-02-22T01:40:47.985Z,69.54
2019-02-22T01:43:49.886Z,69.46
2019-02-22T01:46:51.750Z,69.50
2019-02-22T01:49:53.905Z,69.42
2019-02-22T01:52:55.859Z,69.33
2019-02-22T01:55:57.859Z,69.24
2019-02-22T01:59:00.311Z,69.18
2019-02-22T02:02:02.321Z,69.23
2019-02-22T02:05:05.611Z,69.16
2019-02-22T02:08:07.649Z,69.08
2019-02-22T02:11:09.546Z,68.99
2019-02-22T02:14:11.507Z,68.87
2019-02-22T02:17:13.514Z,68.81
2019-02-22T02:20:16.259Z,68.76
2019-02-22T02:23:18.259Z,68.97
2019-02-22T02:26:20.188Z,68.96
2019-02-22T02:29:22.192Z,68.89
2019-02-22T02:32:24.116Z,69.01
2019-02-22T02:35:26.101Z,68.83
2019-02-22T02:38:28.180Z,68.98
2019-02-22T02:41:30.186Z,68.89
2019-02-22T02:44:32.208Z,68.74
2019-02-22T02:47:34.144Z,68.82
2019-02-22T02:50:36.150Z,68.67
2019-02-22T02:53:38.075Z,68.64
2019-02-22T02:56:40.003Z,68.56
2019-02-22T02:59:41.980Z,68.50
2019-02-22T03:02:45.236Z,68.49
2019-02-22T03:05:51.912Z,68.40
2019-02-22T03:08:53.850Z,68.23
2019-02-22T03:11:55.884Z,68.26
2019-02-22T03:14:57.831Z,68.22
2019-02-22T03:17:59.838Z,68.23
2019-02-22T03:21:01.996Z,68.19
2019-02-22T03:24:03.942Z,68.14
2019-02-22T03:27:05.927Z,68.20
2019-02-22T03:30:09.781Z,66.89
2019-02-22T03:33:12.070Z,68.55
2019-02-22T03:36:14.024Z,70.57
2019-02-22T03:39:15.946Z,71.63
2019-02-22T03:42:17.985Z,72.56
2019-02-22T03:45:19.934Z,72.32
2019-02-22T03:48:21.855Z,71.95
2019-02-22T03:51:23.797Z,71.99
2019-02-22T03:54:25.909Z,71.46
2019-02-22T03:57:27.871Z,71.28
2019-02-22T04:00:29.875Z,70.20
2019-02-22T04:03:31.827Z,69.79
2019-02-22T04:06:33.837Z,69.09
2019-02-22T04:09:35.822Z,68.55
2019-02-22T04:12:37.791Z,68.52
2019-02-22T04:15:39.711Z,68.52
2019-02-22T04:18:41.641Z,68.27
2019-02-22T04:21:43.796Z,68.06
2019-02-22T04:24:45.759Z,67.95
2019-02-22T04:27:47.682Z,68.05
2019-02-22T04:30:49.586Z,67.92
2019-02-22T04:33:51.594Z,67.33
2019-02-22T04:36:53.512Z,66.57
2019-02-22T04:39:55.506Z,64.60
2019-02-22T04:42:57.479Z,64.86
2019-02-22T04:45:59.592Z,64.80
2019-02-22T04:49:01.597Z,65.50
2019-02-22T04:52:03.662Z,66.09
2019-02-22T04:55:05.676Z,66.50
2019-02-22T04:58:08.048Z,65.16
2019-02-22T05:01:09.997Z,64.71
2019-02-22T05:04:12.146Z,64.49
2019-02-22T05:07:14.108Z,65.29
2019-02-22T05:10:16.099Z,65.73
2019-02-22T05:13:18.129Z,66.08
2019-02-22T05:16:20.136Z,66.10
2019-02-22T05:19:22.121Z,65.54
2019-02-22T05:22:24.241Z,63.64
2019-02-22T05:25:26.227Z,63.51
2019-02-22T05:28:28.159Z,63.67
2019-02-22T05:31:30.066Z,63.83
2019-02-22T05:34:32.072Z,63.29
2019-02-22T05:37:34.056Z,63.61
2019-02-22T05:40:36.030Z,63.47
2019-02-22T05:43:38.020Z,63.86
2019-02-22T05:46:41.437Z,64.12
2019-02-22T05:49:43.391Z,63.30
2019-02-22T05:52:45.544Z,63.60
2019-02-22T05:55:47.493Z,63.10
2019-02-22T05:58:49.420Z,63.41
2019-02-22T06:01:51.349Z,63.93
2019-02-22T06:04:53.269Z,63.70
2019-02-22T06:07:55.164Z,63.94
2019-02-22T06:10:57.037Z,64.37
2019-02-22T06:13:59.054Z,64.64
2019-02-22T06:17:01.006Z,64.52
2019-02-22T06:20:09.081Z,65.14
2019-02-22T06:23:11.158Z,65.53
2019-02-22T06:26:13.122Z,65.59
2019-02-22T06:29:15.044Z,65.28
2019-02-22T06:32:16.964Z,65.35
2019-02-22T06:35:18.875Z,65.19
2019-02-22T06:38:20.830Z,64.97
2019-02-22T06:41:22.729Z,63.68
2019-02-22T06:44:24.713Z,62.58
2019-02-22T06:47:28.405Z,63.31
2019-02-22T06:53:34.466Z,64.01
2019-02-22T06:56:36.492Z,63.15
2019-02-22T06:59:38.388Z,63.23
2019-02-22T07:02:40.385Z,63.01
2019-02-22T07:05:42.321Z,63.08
2019-02-22T07:08:44.328Z,63.21
2019-02-22T07:11:50.558Z,62.43
2019-02-22T07:14:52.519Z,62.50
2019-02-22T07:17:54.506Z,62.72
2019-02-22T07:20:56.439Z,62.21
2019-02-22T07:23:58.646Z,62.29
2019-02-22T07:27:00.568Z,62.92
2019-02-22T07:30:04.272Z,63.13
2019-02-22T07:33:06.191Z,61.79
2019-02-22T07:36:08.170Z,62.08
2019-02-22T07:39:10.131Z,62.60
2019-02-22T07:42:12.103Z,62.86
2019-02-22T07:45:14.039Z,62.67
2019-02-22T07:48:16.125Z,62.50
2019-02-22T07:51:18.201Z,63.04
2019-02-22T07:54:20.243Z,62.76
2019-02-22T07:57:22.202Z,61.07
2019-02-22T08:00:24.677Z,60.98
2019-02-22T08:03:26.560Z,59.05
2019-02-22T08:06:28.525Z,57.46
2019-02-22T08:09:30.444Z,56.74
2019-02-22T08:12:32.503Z,56.39
2019-02-22T08:15:35.397Z,56.57
2019-02-22T08:18:37.871Z,55.42
2019-02-22T08:21:39.862Z,54.98
2019-02-22T08:24:42.029Z,54.95
2019-02-22T08:27:53.150Z,54.60
2019-02-22T08:30:47.898Z,53.83
2019-02-22T08:33:49.844Z,53.88
2019-02-22T08:36:51.885Z,53.38
2019-02-22T08:39:58.520Z,52.62
2019-02-22T08:42:59.079Z,52.46
2019-02-22T08:46:01.054Z,51.63
2019-02-22T08:49:03.564Z,50.01
2019-02-22T08:52:05.728Z,50.39
2019-02-22T08:55:07.746Z,48.85
2019-02-22T08:58:09.811Z,48.76
2019-02-22T09:01:11.708Z,49.30
2019-02-22T09:04:13.718Z,50.43
2019-02-22T09:07:15.634Z,49.76
2019-02-22T09:10:17.513Z,51.05
2019-02-22T09:13:19.478Z,50.57
2019-02-22T09:16:21.427Z,51.00
2019-02-22T09:19:23.407Z,50.63
2019-02-22T09:22:25.306Z,50.54
2019-02-22T09:25:27.510Z,51.45
2019-02-22T09:28:29.489Z,51.58
2019-02-22T09:31:31.439Z,49.51
2019-02-22T09:34:33.397Z,50.89
2019-02-22T09:37:35.356Z,51.73
2019-02-22T09:40:37.323Z,47.42
2019-02-22T09:43:39.334Z,47.00
2019-02-22T09:46:41.273Z,49.14
2019-02-22T09:49:43.664Z,46.86
2019-02-22T09:52:45.544Z,48.83
2019-02-22T09:55:47.554Z,48.44
2019-02-22T09:58:50.361Z,49.31
2019-02-22T10:01:52.318Z,47.46
2019-02-22T10:04:55.605Z,46.11
2019-02-22T10:07:57.975Z,46.41
2019-02-22T10:10:59.939Z,46.44
2019-02-22T10:14:06.628Z,46.41
2019-02-22T10:17:05.799Z,46.07
2019-02-22T10:20:10.888Z,45.88
2019-02-22T10:23:12.840Z,45.69
2019-02-22T10:26:15.005Z,44.86
2019-02-22T10:29:16.962Z,44.33
2019-02-22T10:32:18.899Z,43.75
2019-02-22T10:35:20.889Z,45.20
2019-02-22T10:38:22.866Z,46.46
2019-02-22T10:41:24.838Z,48.15
2019-02-22T10:44:26.785Z,46.68
2019-02-22T10:47:28.740Z,45.34
2019-02-22T10:50:31.601Z,45.58
2019-02-22T10:53:33.528Z,45.55
2019-02-22T10:56:35.638Z,45.02
2019-02-22T10:59:37.596Z,43.05
2019-02-22T11:02:39.642Z,44.27
2019-02-22T11:05:41.601Z,44.09
2019-02-22T11:08:43.514Z,41.92
2019-02-22T11:11:45.495Z,43.88
2019-02-22T11:14:47.456Z,43.18
2019-02-22T11:17:49.376Z,42.86
2019-02-22T11:20:51.384Z,42.32
2019-02-22T11:23:53.292Z,42.84
2019-02-22T11:26:55.579Z,43.80
2019-02-22T11:29:57.579Z,42.17
2019-02-22T11:32:59.516Z,42.30
2019-02-22T11:36:01.474Z,42.86
2019-02-22T11:39:05.528Z,41.60
2019-02-22T11:42:08.787Z,42.83
2019-02-22T11:45:11.024Z,43.74
2019-02-22T11:48:12.942Z,40.39
2019-02-22T11:51:15.898Z,42.31
2019-02-22T11:54:17.804Z,38.12
2019-02-22T11:57:20.207Z,40.02
2019-02-22T12:00:26.092Z,40.66
2019-02-22T12:03:28.106Z,39.61
2019-02-22T12:06:30.058Z,40.04
2019-02-22T12:09:31.962Z,39.92
2019-02-22T12:12:33.874Z,39.48
2019-02-22T12:15:35.834Z,38.65
2019-02-22T12:18:38.104Z,39.80
2019-02-22T12:21:40.062Z,41.96
2019-02-22T12:24:42.024Z,38.71
2019-02-22T12:27:44.034Z,42.04
2019-02-22T12:30:45.980Z,41.75
2019-02-22T12:33:48.208Z,40.08
2019-02-22T12:36:50.388Z,39.00
2019-02-22T12:39:52.413Z,38.58
2019-02-22T12:42:54.358Z,39.35
2019-02-22T12:45:56.404Z,40.04
2019-02-22T12:48:58.328Z,38.99
2019-02-22T12:52:00.713Z,38.29
2019-02-22T12:55:04.769Z,39.29
2019-02-22T12:58:06.830Z,38.81
2019-02-22T13:01:08.716Z,38.70
2019-02-22T13:04:10.732Z,39.66
2019-02-22T13:07:13.830Z,39.06
2019-02-22T13:10:16.258Z,38.67
2019-02-22T13:13:18.252Z,40.39
2019-02-22T13:16:20.281Z,38.07
2019-02-22T13:19:22.280Z,38.98
2019-02-22T13:22:24.306Z,39.97
2019-02-22T13:25:26.238Z,40.14
2019-02-22T13:28:28.401Z,40.06
2019-02-22T13:31:30.567Z,38.65
2019-02-22T13:34:32.543Z,39.67
2019-02-22T13:37:34.497Z,39.60
2019-02-22T13:40:36.498Z,39.79
2019-02-22T13:43:38.443Z,39.78
2019-02-22T13:46:40.449Z,40.22
2019-02-22T13:49:42.496Z,40.02
2019-02-22T13:52:45.281Z,40.70
2019-02-22T13:55:47.436Z,40.93
2019-02-22T13:58:49.543Z,40.02
2019-02-22T14:01:52.975Z,38.00
2019-02-22T14:04:55.574Z,38.79
2019-02-22T14:07:57.562Z,38.98
2019-02-22T14:10:59.591Z,39.45
2019-02-22T14:14:01.683Z,40.46
2019-02-22T14:17:03.847Z,40.00
2019-02-22T14:20:07.089Z,40.32
2019-02-22T14:23:09.155Z,38.61
2019-02-22T14:26:11.126Z,40.98
2019-02-22T14:29:13.334Z,40.36
2019-02-22T14:32:15.301Z,40.97
2019-02-22T14:35:17.444Z,39.30
2019-02-22T14:38:19.489Z,38.13
2019-02-22T14:41:21.579Z,39.76
2019-02-22T14:44:23.758Z,39.18
2019-02-22T14:47:25.919Z,39.59
2019-02-22T14:50:27.874Z,38.96
2019-02-22T14:53:30.432Z,37.78
2019-02-22T14:56:32.447Z,36.43
2019-02-22T14:59:34.597Z,38.98
2019-02-22T15:02:36.763Z,39.03
2019-02-22T15:05:38.863Z,38.66
2019-02-22T15:08:40.838Z,38.17
2019-02-22T15:11:43.836Z,37.97
2019-02-22T15:14:45.969Z,38.64
2019-02-22T15:17:49.725Z,38.49
2019-02-22T15:20:51.843Z,37.08
2019-02-22T15:23:53.999Z,39.07
2019-02-22T15:26:56.063Z,39.18
2019-02-22T15:29:58.354Z,38.82
2019-02-22T15:33:00.362Z,37.63
2019-02-22T15:36:02.491Z,37.77
2019-02-22T15:39:05.110Z,38.46
2019-02-22T15:42:08.965Z,38.06
2019-02-22T15:45:16.457Z,39.67
2019-02-22T15:48:18.475Z,39.80
2019-02-22T15:51:20.489Z,40.36
2019-02-22T15:54:22.425Z,40.78
2019-02-22T15:57:25.202Z,40.87
2019-02-22T16:00:32.503Z,41.31
2019-02-22T16:03:39.226Z,41.88
2019-02-22T16:06:41.288Z,40.24
2019-02-22T16:09:43.459Z,39.81
2019-02-22T16:12:45.776Z,40.22
2019-02-22T16:15:48.566Z,39.82
2019-02-22T16:18:50.565Z,40.80
2019-02-22T16:21:52.581Z,40.63
2019-02-22T16:24:54.963Z,41.53
2019-02-22T16:27:56.870Z,42.10
2019-02-22T16:31:00.103Z,42.71
2019-02-22T16:34:02.068Z,43.50
2019-02-22T16:37:04.034Z,43.25
2019-02-22T16:40:08.832Z,43.90
2019-02-22T16:43:12.652Z,44.32
2019-02-22T16:46:15.134Z,44.42
2019-02-22T16:49:17.336Z,44.67
2019-02-22T16:52:19.304Z,44.32
2019-02-22T16:55:23.351Z,44.25
2019-02-22T16:58:25.490Z,44.79
2019-02-22T17:01:28.217Z,44.76
2019-02-22T17:04:30.239Z,44.26
2019-02-22T17:07:33.095Z,44.08
2019-02-22T17:10:37.015Z,43.90
2019-02-22T17:13:39.953Z,43.83
2019-02-22T17:16:46.078Z,43.26
2019-02-22T17:19:47.320Z,42.93
2019-02-22T17:22:51.225Z,43.43
2019-02-22T17:25:53.145Z,43.71
2019-02-22T17:28:55.165Z,43.94
2019-02-22T17:31:57.334Z,44.25
2019-02-22T17:35:01.250Z,43.55
2019-02-22T17:38:03.808Z,43.50
2019-02-22T17:41:06.191Z,43.72
2019-02-22T17:44:08.165Z,44.30
2019-02-22T17:47:12.642Z,44.65
2019-02-22T17:50:14.880Z,45.32
2019-02-22T17:53:16.957Z,45.48
2019-02-22T17:56:18.956Z,44.64
2019-02-22T17:59:20.854Z,45.23
2019-02-22T18:02:24.704Z,45.32
2019-02-22T18:05:28.077Z,44.90
2019-02-22T18:08:30.845Z,44.73
2019-02-22T18:11:32.789Z,44.00
2019-02-22T18:14:34.809Z,44.88
2019-02-22T18:17:36.768Z,45.34
2019-02-22T18:20:39.022Z,45.69
2019-02-22T18:23:41.201Z,46.15
2019-02-22T18:26:45.984Z,46.86
2019-02-22T18:29:48.212Z,46.50
2019-02-22T18:32:50.567Z,46.28
2019-02-22T18:35:52.947Z,45.93
2019-02-22T18:38:56.834Z,45.76
2019-02-22T18:41:59.118Z,46.08
2019-02-22T18:45:03.166Z,46.65
2019-02-22T18:48:06.138Z,46.11
2019-02-22T18:51:09.960Z,45.92
2019-02-22T18:54:12.333Z,46.25
2019-02-22T18:57:14.347Z,46.49
2019-02-22T19:00:20.298Z,46.81
2019-02-22T19:03:25.087Z,47.05
2019-02-22T19:06:27.067Z,47.08
2019-02-22T19:09:29.049Z,47.44
2019-02-22T19:12:32.422Z,47.69
2019-02-22T19:15:35.616Z,47.84
2019-02-22T19:18:40.971Z,47.80
2019-02-22T19:21:43.283Z,47.77
2019-02-22T19:24:45.266Z,47.76
2019-02-22T19:27:47.250Z,47.67
2019-02-22T19:30:49.201Z,46.66
2019-02-22T19:33:51.321Z,46.95
2019-02-22T19:36:55.772Z,47.52
2019-02-22T19:40:01.910Z,47.65
2019-02-22T19:43:06.259Z,48.02
2019-02-22T19:46:08.199Z,47.25
2019-02-22T19:49:10.157Z,47.27
2019-02-22T19:52:12.750Z,47.40
2019-02-22T19:55:19.106Z,47.87
2019-02-22T19:58:26.703Z,47.61
2019-02-22T20:01:29.363Z,47.82
2019-02-22T20:04:31.406Z,48.11
2019-02-22T20:07:34.043Z,47.97
2019-02-22T20:10:41.525Z,48.96
2019-02-22T20:13:44.881Z,49.01
2019-02-22T20:16:48.639Z,49.00
2019-02-22T20:19:52.578Z,48.34
2019-02-22T20:22:54.535Z,48.08
2019-02-22T20:25:58.576Z,48.61
2019-02-22T20:29:00.460Z,49.07
2019-02-22T20:32:02.747Z,49.10
2019-02-22T20:35:09.485Z,49.90
2019-02-22T20:38:11.639Z,49.72
2019-02-22T20:41:13.576Z,49.02
2019-02-22T20:44:15.564Z,49.16
2019-02-22T20:47:17.564Z,49.37
2019-02-22T20:50:23.158Z,49.41
2019-02-22T20:53:25.809Z,49.15
2019-02-22T20:56:29.217Z,49.05
2019-02-22T20:59:32.441Z,48.85
2019-02-22T21:02:34.435Z,49.06
2019-02-22T21:05:36.412Z,48.75
2019-02-22T21:08:38.409Z,48.71
2019-02-22T21:11:40.454Z,48.61
2019-02-22T21:14:44.322Z,48.88
2019-02-22T21:17:48.270Z,49.04
2019-02-22T21:20:50.258Z,49.18
2019-02-22T21:23:52.183Z,48.96
2019-02-22T21:26:54.123Z,49.08
2019-02-22T21:29:58.995Z,49.08
2019-02-22T21:33:05.170Z,48.92
2019-02-22T21:36:07.904Z,48.72
2019-02-22T21:39:09.918Z,48.70
2019-02-22T21:42:19.838Z,49.12
2019-02-22T21:45:16.365Z,48.84
2019-02-22T21:48:27.279Z,49.14
2019-02-22T21:51:22.717Z,49.39
2019-02-22T21:54:24.647Z,49.64
2019-02-22T21:57:26.636Z,49.79
2019-02-22T22:00:29.518Z,49.84
2019-02-22T22:03:31.517Z,49.94
2019-02-22T22:06:33.523Z,49.89
2019-02-22T22:09:40.490Z,49.80
2019-02-22T22:12:44.023Z,49.88
2019-02-22T22:15:46.082Z,49.56
2019-02-22T22:18:48.083Z,49.50
2019-02-22T22:21:50.004Z,50.23
2019-02-22T22:24:52.038Z,50.75
2019-02-22T22:27:54.539Z,50.95
2019-02-22T22:30:56.444Z,50.96
2019-02-22T22:33:58.398Z,51.75
2019-02-22T22:37:00.429Z,52.09
2019-02-22T22:40:02.569Z,52.35
2019-02-22T22:43:04.564Z,52.53
2019-02-22T22:46:06.550Z,53.07
2019-02-22T22:49:08.570Z,52.69
2019-02-22T22:52:10.530Z,52.75
2019-02-22T22:55:12.523Z,52.56
2019-02-22T22:58:14.484Z,52.40
2019-02-22T23:01:17.270Z,52.53
2019-02-22T23:04:19.475Z,53.07
2019-02-22T23:07:21.452Z,53.88
2019-02-22T23:10:23.387Z,53.57
2019-02-22T23:13:25.458Z,53.68
2019-02-22T23:16:27.577Z,54.25
2019-02-22T23:19:29.503Z,53.51
2019-02-22T23:22:31.462Z,53.13
2019-02-22T23:25:33.384Z,52.92
2019-02-22T23:28:35.358Z,52.86
2019-02-22T23:31:37.350Z,52.87
2019-02-22T23:34:39.281Z,52.59
2019-02-22T23:37:41.249Z,52.62
2019-02-22T23:40:43.260Z,52.73
2019-02-22T23:43:45.183Z,53.04
2019-02-22T23:46:47.140Z,53.57
2019-02-22T23:49:49.386Z,53.83
2019-02-22T23:52:51.292Z,54.12
2019-02-22T23:55:53.171Z,53.88
2019-02-22T23:58:55.149Z,54.03
